Quantum Of The Seas — C6BH8 — position and weather

sailwx.info

Track history (hours):
 
Tides and Currents Weather Stations Pressure Air Temp Water Temp Dewpoint Dewpoint Depression Visibility Wind Speed Wind Dir Waves Ship Positions

Quantum Of The Seas

Last reported at 2017-Apr-12 16:04 UTC. Time now 2017-Apr-24 21:03 UTC.
Position N 31°19' E 123°21'.
Warning: this ship's position is 12 days out of date.

Length 348 m; draft 9 m.

Type: Passenger vessel. MMSI: 311000267.

Date/timePositionNaut miles runAvg speedWind from/ knotsBaromVisibWave heightAir tempDewpointWater temp
2017-Apr-12 16:04N 31°19' E 123°21'113.1
2017-Apr-12 16:00N 31°19' E 123°20'1212.8
2017-Apr-12 15:06N 31°14' E 123°08'212.3
2017-Apr-12 14:57N 31°13' E 123°06'1212.3
2017-Apr-12 13:59N 31°10' E 122°53'815.9
2017-Apr-12 13:28N 31°07' E 122°43'613.8
2017-Apr-12 13:00N 31°05' E 122°36'612.6
2017-Apr-12 12:30N 31°06' E 122°29'712.3
2017-Apr-12 11:58N 31°06' E 122°21'1614.3
2017-Apr-12 10:52N 31°14' E 122°05'514.7
2017-Apr-12 10:30N 31°15' E 121°59'714.9
2017-Apr-12 10:01N 31°17' E 121°51'714.6
2017-Apr-12 09:31N 31°19' E 121°43'611.9
2017-Apr-12 09:00N 31°22' E 121°37'611.3
2017-Apr-12 08:31N 31°25' E 121°31'0 0.7
2017-Apr-12 07:57N 31°25' E 121°30'0 0.0
2017-Apr-12 06:57N 31°25' E 121°30'0 0.0
2017-Apr-12 06:27N 31°25' E 121°30'0 0.0
2017-Apr-12 05:51N 31°25' E 121°30'0 0.0
2017-Apr-12 05:27N 31°25' E 121°30'0 0.0
2017-Apr-12 04:51N 31°25' E 121°30'0 0.0
2017-Apr-12 04:21N 31°25' E 121°30'0 0.0
2017-Apr-12 03:45N 31°25' E 121°30'0 0.0
2017-Apr-12 03:27N 31°25' E 121°30'0 0.0
2017-Apr-12 02:57N 31°25' E 121°30'0 0.0
2017-Apr-12 02:15N 31°25' E 121°30'0 0.0
2017-Apr-12 01:57N 31°25' E 121°30'0 0.0
2017-Apr-12 01:27N 31°25' E 121°30'0 0.0
2017-Apr-12 00:57N 31°25' E 121°30'0 0.0
2017-Apr-12 00:27N 31°25' E 121°30'0 0.0
2017-Apr-11 23:57N 31°25' E 121°30'0 0.0
2017-Apr-11 23:27N 31°25' E 121°30'0 0.0
2017-Apr-11 22:57N 31°25' E 121°30'0 0.0
2017-Apr-11 22:27N 31°25' E 121°30'0 0.0
2017-Apr-11 21:57N 31°25' E 121°30'0 0.0
2017-Apr-11 21:27N 31°25' E 121°30'0 0.0
2017-Apr-11 20:57N 31°25' E 121°30'0 0.0
2017-Apr-11 20:27N 31°25' E 121°30'0 0.0
2017-Apr-11 19:57N 31°25' E 121°30'0 0.0
2017-Apr-11 19:27N 31°25' E 121°30'0 0.0
2017-Apr-11 18:57N 31°25' E 121°30'0 0.0
2017-Apr-11 18:27N 31°25' E 121°30'0 0.0
2017-Apr-11 17:51N 31°25' E 121°30'0 0.0
2017-Apr-11 17:30N 31°25' E 121°30'2 3.4
2017-Apr-11 17:00N 31°24' E 121°32'5 9.6
2017-Apr-11 16:30N 31°22' E 121°37'5 9.7
2017-Apr-11 16:00N 31°20' E 121°42'5 9.6
2017-Apr-11 15:30N 31°18' E 121°47'510.4
2017-Apr-11 15:00N 31°16' E 121°53'5 9.3
2017-Apr-11 14:30N 31°15' E 121°58'10 9.7
2017-Apr-11 13:30N 31°12' E 122°09'611.1
2017-Apr-11 13:00N 31°09' E 122°14'5 9.2
2017-Apr-11 12:30N 31°06' E 122°19'4 7.7
2017-Apr-11 11:59N 31°06' E 122°24'8 7.3
2017-Apr-11 10:49N 31°12' E 122°31'  
2017-Apr-08 17:42N 31°06' E 122°22'314.0
2017-Apr-08 17:29N 31°06' E 122°19'714.8
2017-Apr-08 17:00N 31°10' E 122°12'714.3
2017-Apr-08 16:30N 31°14' E 122°05'612.7
2017-Apr-08 16:00N 31°15' E 121°57'612.2
2017-Apr-08 15:30N 31°17' E 121°50'613.1
2017-Apr-08 15:00N 31°19' E 121°43'1110.5
2017-Apr-08 14:00N 31°24' E 121°33'2 4.2
2017-Apr-08 13:30N 31°25' E 121°30'0 0.1
2017-Apr-08 12:54N 31°25' E 121°30'0 0.0
2017-Apr-08 12:27N 31°25' E 121°30'0 0.0
2017-Apr-08 11:57N 31°25' E 121°30'0 0.0
2017-Apr-08 11:27N 31°25' E 121°30'0 0.0
2017-Apr-08 10:57N 31°25' E 121°30'0 0.0
2017-Apr-08 10:27N 31°25' E 121°30'0 0.0
2017-Apr-08 10:00N 31°25' E 121°30'0 0.0
2017-Apr-08 09:27N 31°25' E 121°30'0 0.0
2017-Apr-08 08:57N 31°25' E 121°30'0 0.0
2017-Apr-08 08:27N 31°25' E 121°30'0 0.0
2017-Apr-08 07:54N 31°25' E 121°30'0 0.0
2017-Apr-08 07:27N 31°25' E 121°30'0 0.0
2017-Apr-08 07:00N 31°25' E 121°30'0 0.0
2017-Apr-08 06:30N 31°25' E 121°30'0 0.0
2017-Apr-08 05:57N 31°25' E 121°30'0 0.0
2017-Apr-08 05:27N 31°25' E 121°30'0 0.0
2017-Apr-08 04:48N 31°25' E 121°30'0 0.0
2017-Apr-08 04:30N 31°25' E 121°30'0 0.0
2017-Apr-08 03:54N 31°25' E 121°30'0 0.0
2017-Apr-08 03:27N 31°25' E 121°30'0 0.0
2017-Apr-08 02:54N 31°25' E 121°30'0 0.0
2017-Apr-08 02:27N 31°25' E 121°30'0 0.0
2017-Apr-08 01:57N 31°25' E 121°30'1 1.0
2017-Apr-08 01:26N 31°25' E 121°31'3 5.9
2017-Apr-08 01:00N 31°24' E 121°34'0 0.0
2017-Apr-08 00:30N 31°24' E 121°34'0 0.0
2017-Apr-08 00:00N 31°24' E 121°34'0 0.0
2017-Apr-07 23:30N 31°24' E 121°34'2 3.8
2017-Apr-07 23:00N 31°23' E 121°35'4 7.7
2017-Apr-07 22:30N 31°21' E 121°39'5 9.0
2017-Apr-07 22:00N 31°19' E 121°44'713.8
2017-Apr-07 21:31N 31°16' E 121°51'510.1
2017-Apr-07 21:00N 31°15' E 121°57'510.3
2017-Apr-07 20:30N 31°14' E 122°03'612.6
2017-Apr-07 20:00N 31°11' E 122°10'713.6
2017-Apr-07 19:31N 31°08' E 122°16'911.9
2017-Apr-07 18:48N 31°06' E 122°26'3 5.9
2017-Apr-07 18:20N 31°07' E 122°29'2 6.6
2017-Apr-07 18:00N 31°09' E 122°30'3 7.1
2017-Apr-07 17:30N 31°12' E 122°31'713.1
2017-Apr-07 16:58N 31°19' E 122°33'815.5
2017-Apr-07 16:26N 31°22' E 122°42'  
2017-Apr-04 14:00N 31°06' E 122°26'610.0
2017-Apr-04 13:25N 31°06' E 122°19'512.1
2017-Apr-04 12:59N 31°09' E 122°13'511.5
2017-Apr-04 12:30N 31°12' E 122°08'510.1
2017-Apr-04 12:00N 31°14' E 122°03'611.5
2017-Apr-04 11:30N 31°15' E 121°56'510.8
2017-Apr-04 11:00N 31°17' E 121°50'510.2
2017-Apr-04 10:30N 31°19' E 121°45'3 6.9
2017-Apr-04 10:01N 31°20' E 121°41'3 6.5
2017-Apr-04 09:31N 31°22' E 121°38'3 6.5
2017-Apr-04 09:00N 31°23' E 121°34'4 7.6
2017-Apr-04 08:30N 31°25' E 121°30'0 0.0
2017-Apr-04 07:51N 31°25' E 121°30'0 0.0
2017-Apr-04 07:30N 31°25' E 121°30'0 0.0
2017-Apr-04 06:48N 31°25' E 121°30'0 0.0
2017-Apr-04 06:27N 31°25' E 121°30'0 0.0
2017-Apr-04 05:57N 31°25' E 121°30'0 0.0
2017-Apr-04 05:30N 31°25' E 121°30'0 0.0
2017-Apr-04 04:57N 31°25' E 121°30'0 0.0
2017-Apr-04 04:30N 31°25' E 121°30'0 0.0
2017-Apr-04 03:57N 31°25' E 121°30'0 0.0
2017-Apr-04 03:30N 31°25' E 121°30'0 0.0
2017-Apr-04 02:51N 31°25' E 121°30'0 0.0
2017-Apr-04 02:27N 31°25' E 121°30'0 0.0
2017-Apr-04 01:57N 31°25' E 121°30'0 0.0
2017-Apr-04 01:27N 31°25' E 121°30'0 0.0
2017-Apr-04 00:57N 31°25' E 121°30'0 0.0
2017-Apr-04 00:24N 31°25' E 121°30'0 0.0
2017-Apr-04 00:00N 31°25' E 121°30'0 0.0
2017-Apr-03 23:21N 31°25' E 121°30'0 0.0
2017-Apr-03 22:09N 31°25' E 121°30'0 0.0
2017-Apr-03 21:42N 31°25' E 121°30'0 0.0
2017-Apr-03 21:26N 31°25' E 121°30'0 0.1
2017-Apr-03 21:00N 31°25' E 121°30'3 5.3
2017-Apr-03 20:29N 31°24' E 121°33'611.3
2017-Apr-03 19:55N 31°21' E 121°40'4 8.7
2017-Apr-03 19:26N 31°19' E 121°44'4 9.7
2017-Apr-03 19:00N 31°17' E 121°49'510.4
2017-Apr-03 18:30N 31°16' E 121°55'510.4
2017-Apr-03 18:00N 31°15' E 122°01'510.3
2017-Apr-03 17:30N 31°13' E 122°06'612.9
2017-Apr-03 17:00N 31°10' E 122°13'510.7
2017-Apr-03 16:30N 31°07' E 122°18'510.5
2017-Apr-03 16:00N 31°06' E 122°24'510.0
2017-Apr-03 15:31N 31°08' E 122°29'816.5
2017-Apr-03 15:01N 31°16' E 122°31'816.4
2017-Apr-03 14:30N 31°21' E 122°39'1716.8
2017-Apr-03 13:30N 31°27' E 122°57'917.8
2017-Apr-03 13:00N 31°28' E 123°08'2517.3
2017-Apr-03 11:32N 31°33' E 123°37'015.6
2017-Apr-03 11:30N 31°33' E 123°38'816.7
2017-Apr-03 11:01N 31°35' E 123°47'1116.4
2017-Apr-03 10:21N 31°37' E 123°60'4816.7
2017-Apr-03 07:28N 31°47' E 124°55'1212.6
2017-Apr-03 06:30N 31°50' E 125°09'911.9
2017-Apr-03 05:46N 31°50' E 125°19'311.3
2017-Apr-03 05:29N 31°51' E 125°23'  
Track history (hours):
 
Tides and Currents Weather Stations Pressure Air Temp Water Temp Dewpoint Dewpoint Depression Visibility Wind Speed Wind Dir Waves Ship Positions

Quantum Of The Seas

Last reported at 2017-Apr-12 16:04 UTC. Time now 2017-Apr-24 21:03 UTC.
Position N 31°19' E 123°21'.
Warning: this ship's position is 12 days out of date.

Length 348 m; draft 9 m.

Type: Passenger vessel. MMSI: 311000267.

Date/timePositionNaut miles runAvg speedWind from/ knotsBaromVisibWave heightAir tempDewpointWater temp
2017-Apr-12 16:04N 31°19' E 123°21'113.1
2017-Apr-12 16:00N 31°19' E 123°20'1212.8
2017-Apr-12 15:06N 31°14' E 123°08'212.3
2017-Apr-12 14:57N 31°13' E 123°06'1212.3
2017-Apr-12 13:59N 31°10' E 122°53'815.9
2017-Apr-12 13:28N 31°07' E 122°43'613.8
2017-Apr-12 13:00N 31°05' E 122°36'612.6
2017-Apr-12 12:30N 31°06' E 122°29'712.3
2017-Apr-12 11:58N 31°06' E 122°21'1614.3
2017-Apr-12 10:52N 31°14' E 122°05'514.7
2017-Apr-12 10:30N 31°15' E 121°59'714.9
2017-Apr-12 10:01N 31°17' E 121°51'714.6
2017-Apr-12 09:31N 31°19' E 121°43'611.9
2017-Apr-12 09:00N 31°22' E 121°37'611.3
2017-Apr-12 08:31N 31°25' E 121°31'0 0.7
2017-Apr-12 07:57N 31°25' E 121°30'0 0.0
2017-Apr-12 06:57N 31°25' E 121°30'0 0.0
2017-Apr-12 06:27N 31°25' E 121°30'0 0.0
2017-Apr-12 05:51N 31°25' E 121°30'0 0.0
2017-Apr-12 05:27N 31°25' E 121°30'0 0.0
2017-Apr-12 04:51N 31°25' E 121°30'0 0.0
2017-Apr-12 04:21N 31°25' E 121°30'0 0.0
2017-Apr-12 03:45N 31°25' E 121°30'0 0.0
2017-Apr-12 03:27N 31°25' E 121°30'0 0.0
2017-Apr-12 02:57N 31°25' E 121°30'0 0.0
2017-Apr-12 02:15N 31°25' E 121°30'0 0.0
2017-Apr-12 01:57N 31°25' E 121°30'0 0.0
2017-Apr-12 01:27N 31°25' E 121°30'0 0.0
2017-Apr-12 00:57N 31°25' E 121°30'0 0.0
2017-Apr-12 00:27N 31°25' E 121°30'0 0.0
2017-Apr-11 23:57N 31°25' E 121°30'0 0.0
2017-Apr-11 23:27N 31°25' E 121°30'0 0.0
2017-Apr-11 22:57N 31°25' E 121°30'0 0.0
2017-Apr-11 22:27N 31°25' E 121°30'0 0.0
2017-Apr-11 21:57N 31°25' E 121°30'0 0.0
2017-Apr-11 21:27N 31°25' E 121°30'0 0.0
2017-Apr-11 20:57N 31°25' E 121°30'0 0.0
2017-Apr-11 20:27N 31°25' E 121°30'0 0.0
2017-Apr-11 19:57N 31°25' E 121°30'0 0.0
2017-Apr-11 19:27N 31°25' E 121°30'0 0.0
2017-Apr-11 18:57N 31°25' E 121°30'0 0.0
2017-Apr-11 18:27N 31°25' E 121°30'0 0.0
2017-Apr-11 17:51N 31°25' E 121°30'0 0.0
2017-Apr-11 17:30N 31°25' E 121°30'2 3.4
2017-Apr-11 17:00N 31°24' E 121°32'5 9.6
2017-Apr-11 16:30N 31°22' E 121°37'5 9.7
2017-Apr-11 16:00N 31°20' E 121°42'5 9.6
2017-Apr-11 15:30N 31°18' E 121°47'510.4
2017-Apr-11 15:00N 31°16' E 121°53'5 9.3
2017-Apr-11 14:30N 31°15' E 121°58'10 9.7
2017-Apr-11 13:30N 31°12' E 122°09'611.1
2017-Apr-11 13:00N 31°09' E 122°14'5 9.2
2017-Apr-11 12:30N 31°06' E 122°19'4 7.7
2017-Apr-11 11:59N 31°06' E 122°24'8 7.3
2017-Apr-11 10:49N 31°12' E 122°31'  
2017-Apr-08 17:42N 31°06' E 122°22'314.0
2017-Apr-08 17:29N 31°06' E 122°19'714.8
2017-Apr-08 17:00N 31°10' E 122°12'714.3
2017-Apr-08 16:30N 31°14' E 122°05'612.7
2017-Apr-08 16:00N 31°15' E 121°57'612.2
2017-Apr-08 15:30N 31°17' E 121°50'613.1
2017-Apr-08 15:00N 31°19' E 121°43'1110.5
2017-Apr-08 14:00N 31°24' E 121°33'2 4.2
2017-Apr-08 13:30N 31°25' E 121°30'0 0.1
2017-Apr-08 12:54N 31°25' E 121°30'0 0.0
2017-Apr-08 12:27N 31°25' E 121°30'0 0.0
2017-Apr-08 11:57N 31°25' E 121°30'0 0.0
2017-Apr-08 11:27N 31°25' E 121°30'0 0.0
2017-Apr-08 10:57N 31°25' E 121°30'0 0.0
2017-Apr-08 10:27N 31°25' E 121°30'0 0.0
2017-Apr-08 10:00N 31°25' E 121°30'0 0.0
2017-Apr-08 09:27N 31°25' E 121°30'0 0.0
2017-Apr-08 08:57N 31°25' E 121°30'0 0.0
2017-Apr-08 08:27N 31°25' E 121°30'0 0.0
2017-Apr-08 07:54N 31°25' E 121°30'0 0.0
2017-Apr-08 07:27N 31°25' E 121°30'0 0.0
2017-Apr-08 07:00N 31°25' E 121°30'0 0.0
2017-Apr-08 06:30N 31°25' E 121°30'0 0.0
2017-Apr-08 05:57N 31°25' E 121°30'0 0.0
2017-Apr-08 05:27N 31°25' E 121°30'0 0.0
2017-Apr-08 04:48N 31°25' E 121°30'0 0.0
2017-Apr-08 04:30N 31°25' E 121°30'0 0.0
2017-Apr-08 03:54N 31°25' E 121°30'0 0.0
2017-Apr-08 03:27N 31°25' E 121°30'0 0.0
2017-Apr-08 02:54N 31°25' E 121°30'0 0.0
2017-Apr-08 02:27N 31°25' E 121°30'0 0.0
2017-Apr-08 01:57N 31°25' E 121°30'1 1.0
2017-Apr-08 01:26N 31°25' E 121°31'3 5.9
2017-Apr-08 01:00N 31°24' E 121°34'0 0.0
2017-Apr-08 00:30N 31°24' E 121°34'0 0.0
2017-Apr-08 00:00N 31°24' E 121°34'0 0.0
2017-Apr-07 23:30N 31°24' E 121°34'2 3.8
2017-Apr-07 23:00N 31°23' E 121°35'4 7.7
2017-Apr-07 22:30N 31°21' E 121°39'5 9.0
2017-Apr-07 22:00N 31°19' E 121°44'713.8
2017-Apr-07 21:31N 31°16' E 121°51'510.1
2017-Apr-07 21:00N 31°15' E 121°57'510.3
2017-Apr-07 20:30N 31°14' E 122°03'612.6
2017-Apr-07 20:00N 31°11' E 122°10'713.6
2017-Apr-07 19:31N 31°08' E 122°16'911.9
2017-Apr-07 18:48N 31°06' E 122°26'3 5.9
2017-Apr-07 18:20N 31°07' E 122°29'2 6.6
2017-Apr-07 18:00N 31°09' E 122°30'3 7.1
2017-Apr-07 17:30N 31°12' E 122°31'713.1
2017-Apr-07 16:58N 31°19' E 122°33'815.5
2017-Apr-07 16:26N 31°22' E 122°42'  
2017-Apr-04 14:00N 31°06' E 122°26'610.0
2017-Apr-04 13:25N 31°06' E 122°19'512.1
2017-Apr-04 12:59N 31°09' E 122°13'511.5
2017-Apr-04 12:30N 31°12' E 122°08'510.1
2017-Apr-04 12:00N 31°14' E 122°03'611.5
2017-Apr-04 11:30N 31°15' E 121°56'510.8
2017-Apr-04 11:00N 31°17' E 121°50'510.2
2017-Apr-04 10:30N 31°19' E 121°45'3 6.9
2017-Apr-04 10:01N 31°20' E 121°41'3 6.5
2017-Apr-04 09:31N 31°22' E 121°38'3 6.5
2017-Apr-04 09:00N 31°23' E 121°34'4 7.6
2017-Apr-04 08:30N 31°25' E 121°30'0 0.0
2017-Apr-04 07:51N 31°25' E 121°30'0 0.0
2017-Apr-04 07:30N 31°25' E 121°30'0 0.0
2017-Apr-04 06:48N 31°25' E 121°30'0 0.0
2017-Apr-04 06:27N 31°25' E 121°30'0 0.0
2017-Apr-04 05:57N 31°25' E 121°30'0 0.0
2017-Apr-04 05:30N 31°25' E 121°30'0 0.0
2017-Apr-04 04:57N 31°25' E 121°30'0 0.0
2017-Apr-04 04:30N 31°25' E 121°30'0 0.0
2017-Apr-04 03:57N 31°25' E 121°30'0 0.0
2017-Apr-04 03:30N 31°25' E 121°30'0 0.0
2017-Apr-04 02:51N 31°25' E 121°30'0 0.0
2017-Apr-04 02:27N 31°25' E 121°30'0 0.0
2017-Apr-04 01:57N 31°25' E 121°30'0 0.0
2017-Apr-04 01:27N 31°25' E 121°30'0 0.0
2017-Apr-04 00:57N 31°25' E 121°30'0 0.0
2017-Apr-04 00:24N 31°25' E 121°30'0 0.0
2017-Apr-04 00:00N 31°25' E 121°30'0 0.0
2017-Apr-03 23:21N 31°25' E 121°30'0 0.0
2017-Apr-03 22:09N 31°25' E 121°30'0 0.0
2017-Apr-03 21:42N 31°25' E 121°30'0 0.0
2017-Apr-03 21:26N 31°25' E 121°30'0 0.1
2017-Apr-03 21:00N 31°25' E 121°30'3 5.3
2017-Apr-03 20:29N 31°24' E 121°33'611.3
2017-Apr-03 19:55N 31°21' E 121°40'4 8.7
2017-Apr-03 19:26N 31°19' E 121°44'4 9.7
2017-Apr-03 19:00N 31°17' E 121°49'510.4
2017-Apr-03 18:30N 31°16' E 121°55'510.4
2017-Apr-03 18:00N 31°15' E 122°01'510.3
2017-Apr-03 17:30N 31°13' E 122°06'612.9
2017-Apr-03 17:00N 31°10' E 122°13'510.7
2017-Apr-03 16:30N 31°07' E 122°18'510.5
2017-Apr-03 16:00N 31°06' E 122°24'510.0
2017-Apr-03 15:31N 31°08' E 122°29'816.5
2017-Apr-03 15:01N 31°16' E 122°31'816.4
2017-Apr-03 14:30N 31°21' E 122°39'1716.8
2017-Apr-03 13:30N 31°27' E 122°57'917.8
2017-Apr-03 13:00N 31°28' E 123°08'2517.3
2017-Apr-03 11:32N 31°33' E 123°37'015.6
2017-Apr-03 11:30N 31°33' E 123°38'816.7
2017-Apr-03 11:01N 31°35' E 123°47'1116.4
2017-Apr-03 10:21N 31°37' E 123°60'4816.7
2017-Apr-03 07:28N 31°47' E 124°55'1212.6
2017-Apr-03 06:30N 31°50' E 125°09'911.9
2017-Apr-03 05:46N 31°50' E 125°19'311.3
2017-Apr-03 05:29N 31°51' E 125°23'  

Dump ship's entire track history